createdAt,value
2022-09-27T00:00:07.773Z,95840.47
2022-09-27T00:02:34.351Z,95851.59
2022-09-27T00:05:00.927Z,95831.94
2022-09-27T00:07:27.423Z,95842.22
2022-09-27T00:09:53.976Z,95824.25
2022-09-27T00:12:20.498Z,95837.09
2022-09-27T00:14:47.001Z,95837.09
2022-09-27T00:17:13.568Z,95825.09
2022-09-27T00:19:40.088Z,95827.66
2022-09-27T00:22:06.622Z,95828.53
2022-09-27T00:24:33.166Z,95814.03
2022-09-27T00:26:59.680Z,95819.16
2022-09-27T00:29:26.304Z,95816.56
2022-09-27T00:31:52.831Z,95814.00
2022-09-27T00:34:21.087Z,95806.31
2022-09-27T00:36:47.832Z,95801.19
2022-09-27T00:39:14.954Z,95802.91
2022-09-27T00:41:42.316Z,95799.47
2022-09-27T00:44:26.861Z,95800.34
2022-09-27T00:47:08.225Z,95796.06
2022-09-27T00:49:34.638Z,95802.91
2022-09-27T00:52:08.900Z,95565.28
2022-09-27T00:54:36.443Z,95796.06
2022-09-27T00:57:03.553Z,95784.97
2022-09-27T00:59:36.555Z,95793.50
2022-09-27T01:02:04.303Z,95791.78
2022-09-27T01:04:31.049Z,95788.38
2022-09-27T01:06:57.560Z,95781.53
2022-09-27T01:09:24.083Z,95772.13
2022-09-27T01:12:09.221Z,95782.41
2022-09-27T01:15:12.954Z,95775.56
2022-09-27T01:18:10.489Z,95790.94
2022-09-27T01:21:10.879Z,95777.28
2022-09-27T01:23:50.372Z,95732.06
2022-09-27T01:26:31.960Z,95770.44
2022-09-27T01:29:06.997Z,95776.38
2022-09-27T01:31:47.140Z,95772.16
2022-09-27T01:34:27.024Z,95764.44
2022-09-27T01:37:02.196Z,95715.88
2022-09-27T01:40:00.093Z,95759.31
2022-09-27T01:42:27.887Z,95752.50
2022-09-27T01:44:58.911Z,95740.53
2022-09-27T01:47:48.492Z,95743.09
2022-09-27T01:50:39.602Z,95713.28
2022-09-27T01:53:30.610Z,95751.66
2022-09-27T01:55:57.589Z,95737.97
2022-09-27T01:58:30.766Z,95743.94
2022-09-27T02:00:57.337Z,95740.53
2022-09-27T02:03:40.099Z,95742.25
2022-09-27T02:06:13.079Z,95729.44
2022-09-27T02:08:44.055Z,95724.31
2022-09-27T02:11:12.031Z,95735.41
2022-09-27T02:14:05.097Z,95505.59
2022-09-27T02:16:43.640Z,95725.16
2022-09-27T02:19:36.324Z,95726.00
2022-09-27T02:22:21.502Z,95722.59
2022-09-27T02:24:54.852Z,95708.94
2022-09-27T02:27:30.119Z,95705.50
2022-09-27T02:30:00.857Z,95700.38
2022-09-27T02:32:27.471Z,95690.13
2022-09-27T02:34:55.879Z,95685.00
2022-09-27T02:37:22.415Z,95680.75
2022-09-27T02:39:49.102Z,95688.44
2022-09-27T02:42:15.622Z,95681.59
2022-09-27T02:44:42.164Z,95680.75
2022-09-27T02:47:16.134Z,95686.72
2022-09-27T02:49:50.642Z,95685.88
2022-09-27T02:52:39.033Z,95687.56
2022-09-27T02:55:11.426Z,95684.16
2022-09-27T02:57:46.813Z,95679.88
2022-09-27T03:00:18.483Z,95672.19
2022-09-27T03:02:45.009Z,95679.88
2022-09-27T03:05:15.208Z,95672.19
2022-09-27T03:07:41.772Z,95673.06
2022-09-27T03:10:11.106Z,95676.44
2022-09-27T03:12:37.620Z,95671.31
2022-09-27T03:15:05.235Z,95679.88
2022-09-27T03:17:31.776Z,95677.31
2022-09-27T03:19:58.284Z,95674.75
2022-09-27T03:22:24.810Z,95673.03
2022-09-27T03:24:51.303Z,95665.38
2022-09-27T03:27:17.864Z,95664.50
2022-09-27T03:29:44.405Z,95669.63
2022-09-27T03:32:10.890Z,95664.50
2022-09-27T03:34:37.879Z,95672.19
2022-09-27T03:37:04.380Z,95559.84
2022-09-27T03:39:30.898Z,95672.19
2022-09-27T03:41:57.435Z,95666.22
2022-09-27T03:44:23.994Z,95665.38
2022-09-27T03:46:50.486Z,95659.38
2022-09-27T03:49:17.603Z,95657.69
2022-09-27T03:51:44.105Z,95653.38
2022-09-27T03:54:10.655Z,95653.38
2022-09-27T03:56:37.151Z,95640.59
2022-09-27T03:59:03.770Z,95650.00
2022-09-27T04:01:30.589Z,95648.25
2022-09-27T04:03:57.203Z,95644.88
2022-09-27T04:06:23.982Z,95639.75
2022-09-27T04:08:50.699Z,95647.44
2022-09-27T04:11:17.503Z,95646.56
2022-09-27T04:13:44.549Z,95646.56
2022-09-27T04:16:11.079Z,95644.00
2022-09-27T04:18:37.598Z,95644.88
2022-09-27T04:21:04.221Z,95649.97
2022-09-27T04:23:30.927Z,95642.31
2022-09-27T04:25:57.470Z,95655.94
2022-09-27T04:28:23.991Z,95644.00
2022-09-27T04:30:50.687Z,95649.13
2022-09-27T04:33:17.347Z,95653.38
2022-09-27T04:36:02.618Z,95649.09
2022-09-27T04:38:29.162Z,95649.13
2022-09-27T04:40:55.851Z,95643.13
2022-09-27T04:43:22.519Z,95651.69
2022-09-27T04:45:49.119Z,95640.56
2022-09-27T04:48:28.013Z,95650.81
2022-09-27T04:50:58.761Z,95646.53
2022-09-27T04:53:25.500Z,95641.44
2022-09-27T04:55:53.321Z,95646.53
2022-09-27T04:58:20.030Z,95661.91
2022-09-27T05:00:47.580Z,95666.19
2022-09-27T05:03:15.040Z,95672.19
2022-09-27T05:05:41.586Z,95670.47
2022-09-27T05:08:08.149Z,95688.41
2022-09-27T05:10:34.651Z,95688.41
2022-09-27T05:13:01.183Z,95687.56
2022-09-27T05:15:27.714Z,95689.25
2022-09-27T05:17:54.363Z,95681.56
2022-09-27T05:20:20.978Z,95688.41
2022-09-27T05:22:47.591Z,95689.25
2022-09-27T05:25:14.218Z,95694.38
2022-09-27T05:27:41.156Z,95690.13
2022-09-27T05:30:08.251Z,95699.50
2022-09-27T05:32:35.264Z,95706.34
2022-09-27T05:35:02.456Z,95707.19
2022-09-27T05:37:31.417Z,95701.22
2022-09-27T05:39:57.948Z,95721.72
2022-09-27T05:42:24.543Z,95726.84
2022-09-27T05:44:51.073Z,95733.69
2022-09-27T05:47:17.580Z,95740.50
2022-09-27T05:49:44.131Z,95740.50
2022-09-27T05:52:15.026Z,95743.06
2022-09-27T05:54:43.325Z,95735.38
2022-09-27T05:57:09.847Z,95755.88
2022-09-27T05:59:36.377Z,95742.25
2022-09-27T06:02:03.076Z,95739.66
2022-09-27T06:04:29.644Z,95744.78
2022-09-27T06:06:58.984Z,95743.94
2022-09-27T06:09:27.452Z,95743.06
2022-09-27T06:11:53.995Z,95749.06
2022-09-27T06:14:20.899Z,95761.88
2022-09-27T06:16:48.092Z,95761.00
2022-09-27T06:19:14.853Z,95760.19
2022-09-27T06:21:41.407Z,95759.31
2022-09-27T06:24:08.127Z,95779.81
2022-09-27T06:26:34.723Z,95782.38
2022-09-27T06:29:01.250Z,95784.09
2022-09-27T06:31:27.785Z,95785.84
2022-09-27T06:33:54.316Z,95790.06
2022-09-27T06:36:20.831Z,95790.94
2022-09-27T06:38:49.126Z,95790.06
2022-09-27T06:41:16.391Z,95776.41
2022-09-27T06:43:42.926Z,95784.94
2022-09-27T06:46:09.561Z,95798.63
2022-09-27T06:48:38.439Z,95802.88
2022-09-27T06:51:05.512Z,95796.06
2022-09-27T06:53:32.041Z,95800.31
2022-09-27T06:56:00.437Z,95802.03
2022-09-27T06:58:49.158Z,95802.91
2022-09-27T07:01:16.611Z,95801.19
2022-09-27T07:03:44.235Z,95797.75
2022-09-27T07:06:22.754Z,95797.78
2022-09-27T07:08:52.872Z,95802.03
2022-09-27T07:11:19.604Z,95800.31
2022-09-27T07:13:46.126Z,95795.19
2022-09-27T07:16:13.620Z,95797.78
2022-09-27T07:18:41.156Z,95799.47
2022-09-27T07:21:08.748Z,95801.19
2022-09-27T07:23:36.420Z,95810.59
2022-09-27T07:26:08.554Z,95803.75
2022-09-27T07:28:35.094Z,95814.00
2022-09-27T07:31:02.550Z,95819.97
2022-09-27T07:33:30.080Z,95820.84
2022-09-27T07:35:56.613Z,95820.84
2022-09-27T07:38:23.098Z,95827.66
2022-09-27T07:40:49.780Z,95834.53
2022-09-27T07:43:17.740Z,95834.53
2022-09-27T07:45:44.327Z,95837.91
2022-09-27T07:48:13.282Z,95841.34
2022-09-27T07:50:39.823Z,95842.22
2022-09-27T07:53:06.386Z,95829.38
2022-09-27T07:55:32.927Z,95843.91
2022-09-27T07:58:08.902Z,95845.59
2022-09-27T08:00:35.564Z,95851.59
2022-09-27T08:03:09.149Z,95843.03
2022-09-27T08:05:36.213Z,95857.59
2022-09-27T08:08:03.320Z,95862.72
2022-09-27T08:10:31.488Z,95864.41
2022-09-27T08:12:59.359Z,95863.53
2022-09-27T08:15:26.041Z,95872.09
2022-09-27T08:17:53.549Z,95865.28
2022-09-27T08:20:20.075Z,95877.22
2022-09-27T08:22:46.642Z,95878.91
2022-09-27T08:25:14.203Z,95878.94
2022-09-27T08:27:41.662Z,95892.59
2022-09-27T08:30:08.682Z,95894.31
2022-09-27T08:32:35.205Z,95895.16
2022-09-27T08:35:01.746Z,95897.72
2022-09-27T08:37:28.239Z,95890.88
2022-09-27T08:39:54.728Z,95904.56
2022-09-27T08:42:50.475Z,95905.41
2022-09-27T08:45:19.198Z,95902.00
2022-09-27T08:47:55.119Z,95898.59
2022-09-27T08:50:28.208Z,95896.03
2022-09-27T08:52:59.659Z,95912.25
2022-09-27T08:55:42.183Z,95916.53
2022-09-27T08:58:26.415Z,95920.78
2022-09-27T09:00:55.482Z,95908.84
2022-09-27T09:03:24.575Z,95929.34
2022-09-27T09:06:11.279Z,95940.44
2022-09-27T09:08:59.993Z,95930.16
2022-09-27T09:12:17.019Z,95949.84
2022-09-27T09:15:16.356Z,95951.56
2022-09-27T09:17:51.871Z,95952.41
2022-09-27T09:20:40.188Z,95934.47
2022-09-27T09:23:28.208Z,95954.97
2022-09-27T09:26:12.551Z,95960.94
2022-09-27T09:29:01.589Z,95954.13
2022-09-27T09:31:58.167Z,95949.84
2022-09-27T09:34:45.402Z,95936.16
2022-09-27T09:37:21.253Z,95945.56
2022-09-27T09:39:59.565Z,95944.72
2022-09-27T09:42:36.008Z,95943.00
2022-09-27T09:45:06.496Z,95929.34
2022-09-27T09:47:42.066Z,95930.19
2022-09-27T09:50:18.636Z,95929.34
2022-09-27T09:52:48.318Z,95918.22
2022-09-27T09:55:26.535Z,95942.16
2022-09-27T09:58:17.744Z,95931.06
2022-09-27T10:00:46.296Z,95918.22
2022-09-27T10:03:14.368Z,95915.66
2022-09-27T10:05:42.155Z,95927.63
2022-09-27T10:08:13.107Z,95927.63
2022-09-27T10:10:39.885Z,95934.47
2022-09-27T10:13:08.401Z,95947.28
2022-09-27T10:15:34.943Z,95957.53
2022-09-27T10:18:01.579Z,95952.41
2022-09-27T10:20:34.281Z,95945.56
2022-09-27T10:23:30.287Z,95940.44
2022-09-27T10:25:59.029Z,95937.00
2022-09-27T10:28:38.081Z,95954.13
2022-09-27T10:31:09.544Z,95951.53
2022-09-27T10:33:51.056Z,95960.94
2022-09-27T10:36:29.243Z,95955.81
2022-09-27T10:39:00.772Z,95966.06
2022-09-27T10:41:42.619Z,95952.38
2022-09-27T10:44:21.901Z,95963.50
2022-09-27T10:46:49.665Z,95972.06
2022-09-27T10:49:19.122Z,95973.75
2022-09-27T10:51:45.784Z,95966.03
2022-09-27T10:54:32.627Z,95992.56
2022-09-27T10:57:14.347Z,95998.56
2022-09-27T10:59:42.738Z,95988.28
2022-09-27T11:02:36.085Z,95990.00
2022-09-27T11:05:31.968Z,95990.00
2022-09-27T11:07:59.655Z,95989.13
2022-09-27T11:10:28.757Z,95981.44
2022-09-27T11:13:24.708Z,95979.75
2022-09-27T11:16:00.019Z,95978.03
2022-09-27T11:18:29.435Z,95975.47
2022-09-27T11:21:18.304Z,95969.50
2022-09-27T11:23:51.791Z,95962.66
2022-09-27T11:26:33.703Z,95963.50
2022-09-27T11:29:35.776Z,95944.72
2022-09-27T11:32:41.846Z,95966.91
2022-09-27T11:35:26.820Z,95963.50
2022-09-27T11:38:02.974Z,95957.53
2022-09-27T11:41:03.588Z,95951.53
2022-09-27T11:43:45.155Z,95952.41
2022-09-27T11:46:31.034Z,95953.25
2022-09-27T11:49:07.820Z,95961.78
2022-09-27T11:51:49.957Z,95940.41
2022-09-27T11:54:37.692Z,95972.91
2022-09-27T11:57:19.332Z,95972.91
2022-09-27T11:59:54.923Z,95969.50
2022-09-27T12:02:43.151Z,95968.63
2022-09-27T12:05:34.496Z,95966.06
2022-09-27T12:08:06.891Z,95960.09
2022-09-27T12:10:33.363Z,95959.25
2022-09-27T12:12:59.923Z,95948.09
2022-09-27T12:15:30.223Z,95951.56
2022-09-27T12:18:14.379Z,95954.97
2022-09-27T12:20:41.199Z,95960.09
2022-09-27T12:23:23.994Z,95951.53
2022-09-27T12:25:57.116Z,95940.44
2022-09-27T12:28:51.081Z,95939.59
2022-09-27T12:31:43.463Z,95935.31
2022-09-27T12:34:31.586Z,95940.41
2022-09-27T12:37:18.611Z,95942.16
2022-09-27T12:39:50.967Z,95918.22
2022-09-27T12:42:26.132Z,95937.03
2022-09-27T12:44:52.651Z,95954.09
2022-09-27T12:47:29.710Z,95946.41
2022-09-27T12:50:09.720Z,95938.72
2022-09-27T12:52:39.404Z,95923.34
2022-09-27T12:55:22.208Z,95931.91
2022-09-27T12:58:17.737Z,95926.78
2022-09-27T13:00:51.740Z,95935.28
2022-09-27T13:03:40.977Z,95939.59
2022-09-27T13:06:13.435Z,95938.72
2022-09-27T13:09:01.732Z,95948.13
2022-09-27T13:11:49.793Z,95931.03
2022-09-27T13:14:21.476Z,95935.28
2022-09-27T13:16:48.333Z,95943.84
2022-09-27T13:19:37.511Z,95939.59
2022-09-27T13:22:08.459Z,95925.91
2022-09-27T13:24:40.964Z,95932.75
2022-09-27T13:27:23.308Z,95931.03
2022-09-27T13:29:52.585Z,95917.38
2022-09-27T13:32:23.572Z,95927.59
2022-09-27T13:34:53.253Z,95927.59
2022-09-27T13:37:28.756Z,95926.78
2022-09-27T13:40:15.164Z,95927.59
2022-09-27T13:43:07.391Z,95913.97
2022-09-27T13:45:42.909Z,95913.97
2022-09-27T13:48:16.325Z,95913.97
2022-09-27T13:50:52.051Z,95914.78
2022-09-27T13:53:35.714Z,95906.28
2022-09-27T13:56:02.407Z,95912.22
2022-09-27T13:58:42.507Z,95907.09
2022-09-27T14:01:32.956Z,95899.44
2022-09-27T14:04:14.905Z,95907.97
2022-09-27T14:06:45.556Z,95910.53
2022-09-27T14:09:18.091Z,95906.28
2022-09-27T14:11:44.693Z,95910.53
2022-09-27T14:14:15.855Z,95893.44
2022-09-27T14:16:46.188Z,95905.41
2022-09-27T14:19:15.990Z,95909.66
2022-09-27T14:21:46.057Z,95900.28
2022-09-27T14:24:37.089Z,95895.16
2022-09-27T14:27:19.815Z,95901.16
2022-09-27T14:29:50.360Z,95890.88
2022-09-27T14:32:21.462Z,95893.44
2022-09-27T14:35:36.777Z,95884.03
2022-09-27T14:38:26.470Z,95873.78
2022-09-27T14:40:55.539Z,95866.94
2022-09-27T14:43:22.123Z,95884.03
2022-09-27T14:45:49.268Z,95882.34
2022-09-27T14:48:21.508Z,95882.34
2022-09-27T14:51:05.728Z,95876.34
2022-09-27T14:53:35.541Z,95880.63
2022-09-27T14:56:02.424Z,95882.34
2022-09-27T14:58:46.614Z,95963.50
2022-09-27T15:01:15.835Z,95986.56
2022-09-27T15:03:44.607Z,95995.97
2022-09-27T15:06:11.444Z,95990.88
2022-09-27T15:08:37.960Z,96000.25
2022-09-27T15:11:10.564Z,95996.81
2022-09-27T15:13:37.510Z,95996.81
2022-09-27T15:16:17.315Z,95994.25
2022-09-27T15:18:45.306Z,96010.50
2022-09-27T15:21:15.239Z,96026.75
2022-09-27T15:23:45.132Z,96004.50
2022-09-27T15:26:16.041Z,95981.41
2022-09-27T15:28:46.565Z,95995.97
2022-09-27T15:31:13.514Z,95987.44
2022-09-27T15:33:40.452Z,95978.88
2022-09-27T15:36:08.396Z,95999.38
2022-09-27T15:38:46.236Z,96003.69
2022-09-27T15:41:14.861Z,96001.09
2022-09-27T15:43:45.586Z,95994.25
2022-09-27T15:46:29.354Z,95998.56
2022-09-27T15:49:17.943Z,95984.00
2022-09-27T15:51:48.009Z,95973.75
2022-09-27T15:54:17.195Z,95982.31
2022-09-27T15:56:44.095Z,95969.50
2022-09-27T15:59:20.868Z,95982.31
2022-09-27T16:01:47.895Z,95981.44
2022-09-27T16:04:14.597Z,95991.69
2022-09-27T16:06:42.728Z,95984.88
2022-09-27T16:09:18.782Z,96001.13
2022-09-27T16:11:49.175Z,96005.38
2022-09-27T16:14:18.385Z,96012.19
2022-09-27T16:16:46.288Z,96013.06
2022-09-27T16:19:12.977Z,96012.19
2022-09-27T16:21:39.484Z,96007.91
2022-09-27T16:24:06.454Z,96009.63
2022-09-27T16:26:34.104Z,96018.19
2022-09-27T16:29:00.869Z,96023.31
2022-09-27T16:31:27.490Z,96036.13
2022-09-27T16:33:54.060Z,96034.44
2022-09-27T16:36:20.736Z,96034.44
2022-09-27T16:38:51.277Z,96025.88
2022-09-27T16:41:18.730Z,96026.75
2022-09-27T16:43:45.392Z,96029.31
2022-09-27T16:46:14.440Z,96033.56
2022-09-27T16:48:41.070Z,96040.41
2022-09-27T16:51:30.144Z,96038.69
2022-09-27T16:53:56.695Z,96021.63
2022-09-27T16:56:23.328Z,96006.25
2022-09-27T16:58:49.794Z,95989.13
2022-09-27T17:01:19.473Z,96013.94
2022-09-27T17:03:51.686Z,96006.25
2022-09-27T17:06:20.018Z,95991.66
2022-09-27T17:08:46.814Z,96007.06
2022-09-27T17:11:15.355Z,95994.25
2022-09-27T17:13:42.836Z,95995.13
2022-09-27T17:16:10.902Z,95996.81
2022-09-27T17:18:38.502Z,96031.88
2022-09-27T17:21:05.537Z,95981.44
2022-09-27T17:23:32.681Z,95991.69
2022-09-27T17:26:05.960Z,96001.94
2022-09-27T17:28:32.640Z,96001.13
2022-09-27T17:31:08.885Z,95979.72
2022-09-27T17:33:41.720Z,95998.56
2022-09-27T17:36:08.384Z,95992.53
2022-09-27T17:38:35.235Z,95995.97
2022-09-27T17:41:10.985Z,96010.50
2022-09-27T17:43:39.315Z,96009.63
2022-09-27T17:46:09.707Z,96004.50
2022-09-27T17:48:54.797Z,96005.38
2022-09-27T17:51:21.772Z,96006.25
2022-09-27T17:53:48.323Z,96016.50
2022-09-27T17:56:14.932Z,96014.75
2022-09-27T17:58:48.115Z,96004.50
2022-09-27T18:01:14.628Z,95998.56
2022-09-27T18:03:41.279Z,96017.31
2022-09-27T18:06:08.251Z,96013.94
2022-09-27T18:08:34.837Z,96014.75
2022-09-27T18:11:05.729Z,96020.75
2022-09-27T18:13:37.171Z,96013.06
2022-09-27T18:16:04.981Z,96007.94
2022-09-27T18:18:33.240Z,96010.50
2022-09-27T18:21:03.598Z,96019.88
2022-09-27T18:23:31.389Z,96022.44
2022-09-27T18:25:58.230Z,96025.00
2022-09-27T18:28:28.891Z,96025.88
2022-09-27T18:30:55.729Z,96027.56
2022-09-27T18:33:22.232Z,96020.75
2022-09-27T18:35:48.740Z,96033.56
2022-09-27T18:38:15.222Z,96040.38
2022-09-27T18:40:55.799Z,96041.25
2022-09-27T18:43:26.456Z,96039.56
2022-09-27T18:45:52.999Z,96037.00
2022-09-27T18:48:19.466Z,96034.44
2022-09-27T18:50:45.964Z,96029.31
2022-09-27T18:53:12.572Z,96033.56
2022-09-27T18:55:39.874Z,96038.69
2022-09-27T18:58:06.419Z,96057.50
2022-09-27T19:00:32.972Z,96049.81
2022-09-27T19:02:59.526Z,96054.06
2022-09-27T19:05:25.997Z,96060.06
2022-09-27T19:07:52.657Z,96060.06
2022-09-27T19:10:19.190Z,96055.78
2022-09-27T19:12:45.721Z,96064.31
2022-09-27T19:15:12.178Z,96067.75
2022-09-27T19:17:38.695Z,96057.50
2022-09-27T19:20:07.320Z,96070.31
2022-09-27T19:22:33.826Z,96068.59
2022-09-27T19:25:00.309Z,96063.47
2022-09-27T19:27:26.820Z,96057.50
2022-09-27T19:29:58.947Z,96060.06
2022-09-27T19:32:25.707Z,96054.06
2022-09-27T19:34:52.187Z,96060.91
2022-09-27T19:37:18.659Z,96071.16
2022-09-27T19:39:45.249Z,96072.00
2022-09-27T19:42:11.703Z,96076.28
2022-09-27T19:44:38.204Z,96076.28
2022-09-27T19:47:04.778Z,96075.44
2022-09-27T19:49:31.286Z,96073.72
2022-09-27T19:51:57.816Z,96088.25
2022-09-27T19:54:24.345Z,96075.44
2022-09-27T19:56:50.833Z,96068.59
2022-09-27T19:59:17.412Z,96075.44
2022-09-27T20:01:44.082Z,96072.88
2022-09-27T20:04:13.527Z,96076.28
2022-09-27T20:06:40.082Z,96078.00
2022-09-27T20:09:06.583Z,96083.97
2022-09-27T20:11:34.061Z,96078.00
2022-09-27T20:14:00.622Z,96078.00
2022-09-27T20:16:27.196Z,96093.38
2022-09-27T20:18:55.357Z,96089.09
2022-09-27T20:21:22.949Z,96085.69
2022-09-27T20:23:50.411Z,96084.84
2022-09-27T20:26:17.475Z,96084.84
2022-09-27T20:28:45.203Z,96085.69
2022-09-27T20:31:13.233Z,96086.53
2022-09-27T20:33:43.590Z,96089.97
2022-09-27T20:36:13.884Z,96084.84
2022-09-27T20:38:41.316Z,96083.13
2022-09-27T20:41:08.332Z,96083.13
2022-09-27T20:43:34.889Z,96069.44
2022-09-27T20:46:02.873Z,96063.47
2022-09-27T20:48:29.401Z,96077.13
2022-09-27T20:51:02.431Z,96061.75
2022-09-27T20:53:30.880Z,96063.47
2022-09-27T20:55:59.307Z,96060.06
2022-09-27T20:58:26.098Z,96065.19
2022-09-27T21:00:52.820Z,96065.19
2022-09-27T21:03:21.741Z,96062.63
2022-09-27T21:05:56.159Z,96067.75
2022-09-27T21:08:23.003Z,96069.44
2022-09-27T21:10:52.658Z,96059.19
2022-09-27T21:13:19.413Z,96063.47
2022-09-27T21:15:45.954Z,96064.31
2022-09-27T21:18:12.679Z,96066.03
2022-09-27T21:20:39.223Z,96077.16
2022-09-27T21:23:05.780Z,96074.59
2022-09-27T21:25:32.284Z,96072.88
2022-09-27T21:27:58.815Z,96075.44
2022-09-27T21:30:25.364Z,96076.28
2022-09-27T21:32:55.390Z,96070.31
2022-09-27T21:35:22.174Z,96078.84
2022-09-27T21:37:48.794Z,96077.16
2022-09-27T21:40:15.884Z,96074.59
2022-09-27T21:42:42.406Z,96083.13
2022-09-27T21:45:09.430Z,96071.16
2022-09-27T21:47:35.903Z,96079.72
2022-09-27T21:50:02.423Z,96081.41
2022-09-27T21:52:28.895Z,96081.41
2022-09-27T21:54:55.411Z,96077.16
2022-09-27T21:57:22.132Z,96072.88
2022-09-27T21:59:48.627Z,96070.31
2022-09-27T22:02:15.199Z,96076.28
2022-09-27T22:04:41.959Z,96071.16
2022-09-27T22:07:08.428Z,96063.47
2022-09-27T22:09:34.923Z,96062.63
2022-09-27T22:12:01.655Z,96062.63
2022-09-27T22:14:28.150Z,96071.16
2022-09-27T22:16:54.654Z,96066.88
2022-09-27T22:19:21.140Z,96057.50
2022-09-27T22:21:47.643Z,96043.78
2022-09-27T22:24:15.696Z,96055.78
2022-09-27T22:26:44.213Z,96056.63
2022-09-27T22:29:11.055Z,96048.09
2022-09-27T22:31:37.684Z,96056.63
2022-09-27T22:34:05.954Z,96053.22
2022-09-27T22:36:33.335Z,96051.50
2022-09-27T22:38:59.931Z,96049.81
2022-09-27T22:41:26.564Z,96044.69
2022-09-27T22:43:53.485Z,96049.81
2022-09-27T22:46:20.538Z,96031.00
2022-09-27T22:48:47.176Z,96047.25
2022-09-27T22:51:13.714Z,96038.66
2022-09-27T22:53:40.265Z,96050.66
2022-09-27T22:56:19.775Z,96054.06
2022-09-27T22:58:47.281Z,96049.81
2022-09-27T23:01:21.373Z,96039.56
2022-09-27T23:03:49.238Z,96043.81
2022-09-27T23:06:16.379Z,96046.38
2022-09-27T23:08:42.910Z,96032.69
2022-09-27T23:11:13.979Z,96038.69
2022-09-27T23:13:41.495Z,96034.44
2022-09-27T23:16:09.536Z,96032.72
2022-09-27T23:18:36.607Z,96041.25
2022-09-27T23:21:06.919Z,96036.13
2022-09-27T23:23:34.638Z,96022.44
2022-09-27T23:26:02.235Z,96016.50
2022-09-27T23:28:29.326Z,96029.31
2022-09-27T23:30:55.953Z,96021.63
2022-09-27T23:33:22.481Z,96017.31
2022-09-27T23:35:50.186Z,96018.19
2022-09-27T23:38:16.992Z,96012.19
2022-09-27T23:40:44.304Z,96008.81
2022-09-27T23:43:10.892Z,96006.25
2022-09-27T23:45:37.942Z,96003.69
2022-09-27T23:48:05.246Z,95991.69
2022-09-27T23:50:32.514Z,95991.69
2022-09-27T23:52:59.510Z,95993.41
2022-09-27T23:55:26.101Z,95982.31
2022-09-27T23:57:52.572Z,95980.59
